createdAt,value
2018-07-23T00:01:16.894Z,11.40
2018-07-23T00:06:20.466Z,12.40
2018-07-23T00:11:24.082Z,12.37
2018-07-23T00:16:27.680Z,13.10
2018-07-23T00:21:31.240Z,12.63
2018-07-23T00:26:34.823Z,11.63
2018-07-23T00:31:38.428Z,12.80
2018-07-23T00:36:41.971Z,11.77
2018-07-23T00:41:45.575Z,11.33
2018-07-23T00:46:49.144Z,11.30
2018-07-23T00:51:52.742Z,11.20
2018-07-23T00:56:56.290Z,12.33
2018-07-23T01:01:59.853Z,11.30
2018-07-23T01:07:03.431Z,12.43
2018-07-23T01:12:07.042Z,10.77
2018-07-23T01:17:10.571Z,10.93
2018-07-23T01:22:14.114Z,11.00
2018-07-23T01:27:17.907Z,10.60
2018-07-23T01:32:21.620Z,11.47
2018-07-23T01:37:25.214Z,13.20
2018-07-23T01:42:28.816Z,14.00
2018-07-23T01:47:32.351Z,14.20
2018-07-23T01:52:35.908Z,14.10
2018-07-23T01:57:40.112Z,15.80
2018-07-23T02:02:44.041Z,15.37
2018-07-23T02:07:47.643Z,15.60
2018-07-23T02:12:51.186Z,16.23
2018-07-23T02:17:54.762Z,16.70
2018-07-23T02:22:58.394Z,14.90
2018-07-23T02:28:01.967Z,14.13
2018-07-23T02:33:05.914Z,15.90
2018-07-23T02:38:09.659Z,16.40
2018-07-23T02:43:13.233Z,17.03
2018-07-23T02:48:16.836Z,16.10
2018-07-23T02:53:20.390Z,15.40
2018-07-23T02:58:23.987Z,16.40
2018-07-23T03:03:27.628Z,16.53
2018-07-23T03:08:31.214Z,16.60
2018-07-23T03:13:34.898Z,16.90
2018-07-23T03:18:38.495Z,16.87
2018-07-23T03:23:42.041Z,18.10
2018-07-23T03:28:46.791Z,18.10
2018-07-23T03:33:50.375Z,16.57
2018-07-23T03:38:53.620Z,17.53
2018-07-23T03:43:57.294Z,17.40
2018-07-23T03:49:00.863Z,16.17
2018-07-23T03:54:04.531Z,16.27
2018-07-23T03:59:08.067Z,17.23
2018-07-23T04:04:14.122Z,16.47
2018-07-23T04:09:17.931Z,16.27
2018-07-23T04:14:21.503Z,16.10
2018-07-23T04:19:25.461Z,16.90
2018-07-23T04:24:29.000Z,16.50
2018-07-23T04:29:32.822Z,17.53
2018-07-23T04:34:36.398Z,18.13
2018-07-23T04:39:40.022Z,18.03
2018-07-23T04:44:43.566Z,18.87
2018-07-23T04:49:49.166Z,18.30
2018-07-23T04:54:53.145Z,19.50
2018-07-23T04:59:56.700Z,20.33
2018-07-23T05:05:00.279Z,20.00
2018-07-23T05:10:03.941Z,20.27
2018-07-23T05:15:07.656Z,20.83
2018-07-23T05:20:11.244Z,20.50
2018-07-23T05:25:14.809Z,21.73
2018-07-23T05:30:18.355Z,19.60
2018-07-23T05:35:21.981Z,20.60
2018-07-23T05:40:25.776Z,21.33
2018-07-23T05:45:29.694Z,21.57
2018-07-23T05:50:33.300Z,21.53
2018-07-23T05:55:36.879Z,23.43
2018-07-23T06:00:40.498Z,24.73
2018-07-23T06:05:44.124Z,27.10
2018-07-23T06:10:48.086Z,25.20
2018-07-23T06:15:51.649Z,25.77
2018-07-23T06:20:55.278Z,24.13
2018-07-23T06:25:58.889Z,23.03
2018-07-23T06:31:02.481Z,22.50
2018-07-23T06:36:06.117Z,20.97
2018-07-23T06:41:09.743Z,22.77
2018-07-23T06:46:13.319Z,17.97
2018-07-23T06:51:16.958Z,15.10
2018-07-23T06:56:21.287Z,14.00
2018-07-23T07:01:24.855Z,14.40
2018-07-23T07:06:28.489Z,15.20
2018-07-23T07:11:32.332Z,16.30
2018-07-23T07:16:35.913Z,15.00
2018-07-23T07:21:39.454Z,14.50
2018-07-23T07:26:43.011Z,14.30
2018-07-23T07:31:46.556Z,15.30
2018-07-23T07:36:50.102Z,14.03
2018-07-23T07:41:53.694Z,11.60
2018-07-23T07:46:57.305Z,12.70
2018-07-23T07:52:00.875Z,13.10
2018-07-23T07:57:04.800Z,14.77
2018-07-23T08:02:08.415Z,13.47
2018-07-23T08:07:12.000Z,13.77
2018-07-23T08:12:15.597Z,13.70
2018-07-23T08:17:19.544Z,15.83
2018-07-23T08:22:23.151Z,15.30
2018-07-23T08:27:27.870Z,19.53
2018-07-23T08:32:31.492Z,21.33
2018-07-23T08:37:35.058Z,20.30
2018-07-23T08:42:38.866Z,23.20
2018-07-23T08:47:42.465Z,23.50
2018-07-23T08:52:46.058Z,21.87
2018-07-23T08:57:49.648Z,17.27
2018-07-23T09:02:53.199Z,15.47
2018-07-23T09:07:56.770Z,18.20
2018-07-23T09:13:00.351Z,13.80
2018-07-23T09:18:03.911Z,15.40
2018-07-23T09:23:07.533Z,17.93
2018-07-23T09:28:11.169Z,15.70
2018-07-23T09:33:16.602Z,18.00
2018-07-23T09:38:21.001Z,16.20
2018-07-23T09:43:26.121Z,15.97
2018-07-23T09:48:29.675Z,16.20
2018-07-23T09:53:33.218Z,16.27
2018-07-23T09:58:36.891Z,17.23
2018-07-23T10:03:41.956Z,16.10
2018-07-23T10:08:45.442Z,15.60
2018-07-23T10:13:49.032Z,16.43
2018-07-23T10:18:52.607Z,18.83
2018-07-23T10:23:56.167Z,17.97
2018-07-23T10:28:59.698Z,15.57
2018-07-23T10:34:03.298Z,15.87
2018-07-23T10:39:08.935Z,14.67
2018-07-23T10:44:12.581Z,12.97
2018-07-23T10:49:16.136Z,13.50
2018-07-23T10:54:19.673Z,11.27
2018-07-23T10:59:23.537Z,13.13
2018-07-23T11:04:27.124Z,13.07
2018-07-23T11:09:30.682Z,9.57
2018-07-23T11:14:34.371Z,8.70
2018-07-23T11:19:37.945Z,9.30
2018-07-23T11:24:45.541Z,8.47
2018-07-23T11:29:45.103Z,8.73
2018-07-23T11:34:48.663Z,8.37
2018-07-23T11:39:52.267Z,7.90
2018-07-23T11:44:55.872Z,7.40
2018-07-23T11:49:59.440Z,7.10
2018-07-23T11:55:02.995Z,7.53
2018-07-23T12:00:06.661Z,7.73
2018-07-23T12:05:10.199Z,6.40
2018-07-23T12:10:13.711Z,6.57
2018-07-23T12:15:17.244Z,8.00
2018-07-23T12:20:20.800Z,7.23
2018-07-23T12:25:24.346Z,7.30
2018-07-23T12:30:28.004Z,7.03
2018-07-23T12:35:31.550Z,6.47
2018-07-23T12:40:36.250Z,6.50
2018-07-23T12:45:40.087Z,7.17
2018-07-23T12:50:43.363Z,6.70
2018-07-23T12:55:46.985Z,8.50
2018-07-23T13:00:50.588Z,8.27
2018-07-23T13:05:54.216Z,7.40
2018-07-23T13:10:57.842Z,7.40
2018-07-23T13:16:01.446Z,7.73
2018-07-23T13:21:05.351Z,6.13
2018-07-23T13:26:08.919Z,7.87
2018-07-23T13:31:16.765Z,8.90
2018-07-23T13:36:20.336Z,10.20
2018-07-23T13:41:23.940Z,8.43
2018-07-23T13:46:27.584Z,9.23
2018-07-23T13:51:31.317Z,8.90
2018-07-23T13:56:35.232Z,9.47
2018-07-23T14:01:38.791Z,9.77
2018-07-23T14:06:42.679Z,9.30
2018-07-23T14:11:46.276Z,8.77
2018-07-23T14:16:49.830Z,9.90
2018-07-23T14:21:54.218Z,10.60
2018-07-23T14:26:57.790Z,10.00
2018-07-23T14:32:01.447Z,11.33
2018-07-23T14:37:05.253Z,10.10
2018-07-23T14:42:08.847Z,9.20
2018-07-23T14:47:12.606Z,9.83
2018-07-23T14:52:16.281Z,10.17
2018-07-23T14:57:19.860Z,9.30
2018-07-23T15:02:23.419Z,9.17
2018-07-23T15:07:26.979Z,8.90
2018-07-23T15:12:30.804Z,9.57
2018-07-23T15:17:34.355Z,9.73
2018-07-23T15:22:37.937Z,9.70
2018-07-23T15:27:42.459Z,8.80
2018-07-23T15:32:46.263Z,9.43
2018-07-23T15:37:50.353Z,9.43
2018-07-23T15:42:54.172Z,9.20
2018-07-23T15:48:00.720Z,10.30
2018-07-23T15:53:04.265Z,9.23
2018-07-23T15:58:07.811Z,9.50
2018-07-23T16:03:11.533Z,8.83
2018-07-23T16:08:15.127Z,9.00
2018-07-23T16:13:18.904Z,8.63
2018-07-23T16:18:22.485Z,8.37
2018-07-23T16:23:26.035Z,9.03
2018-07-23T16:28:29.611Z,9.10
2018-07-23T16:33:33.268Z,8.67
2018-07-23T16:38:37.230Z,9.50
2018-07-23T16:43:41.236Z,9.47
2018-07-23T16:48:44.979Z,9.60
2018-07-23T16:53:48.563Z,9.13
2018-07-23T16:58:52.165Z,7.93
2018-07-23T17:03:56.317Z,10.77
2018-07-23T17:09:00.019Z,10.17
2018-07-23T17:14:03.648Z,9.47
2018-07-23T17:19:07.408Z,9.97
2018-07-23T17:24:11.024Z,9.53
2018-07-23T17:29:14.587Z,10.70
2018-07-23T17:34:18.226Z,9.40
2018-07-23T17:39:21.974Z,10.47
2018-07-23T17:44:25.859Z,9.30
2018-07-23T17:49:29.465Z,10.47
2018-07-23T17:54:33.255Z,9.73
2018-07-23T17:59:36.818Z,9.60
2018-07-23T18:04:40.434Z,9.67
2018-07-23T18:09:44.238Z,11.67
2018-07-23T18:14:48.386Z,10.03
2018-07-23T18:19:52.605Z,10.23
2018-07-23T18:24:56.749Z,10.50
2018-07-23T18:30:01.094Z,14.20
2018-07-23T18:35:06.605Z,12.60
2018-07-23T18:40:10.937Z,9.93
2018-07-23T18:45:16.622Z,10.97
2018-07-23T18:50:20.268Z,9.70
2018-07-23T18:55:23.941Z,10.63
2018-07-23T19:00:27.504Z,11.10
2018-07-23T19:05:31.348Z,12.50
2018-07-23T19:10:35.039Z,12.00
2018-07-23T19:15:38.597Z,11.47
2018-07-23T19:20:42.200Z,11.83
2018-07-23T19:25:45.781Z,11.13
2018-07-23T19:30:49.425Z,26.20
2018-07-23T19:35:52.994Z,11.30
2018-07-23T19:40:56.637Z,12.50
2018-07-23T19:46:00.338Z,11.70
2018-07-23T19:51:04.014Z,11.23
2018-07-23T19:56:09.736Z,11.60
2018-07-23T20:01:14.732Z,11.70
2018-07-23T20:06:21.138Z,11.90
2018-07-23T20:11:26.724Z,11.83
2018-07-23T20:16:31.591Z,12.37
2018-07-23T20:21:36.527Z,17.53
2018-07-23T20:26:41.737Z,12.50
2018-07-23T20:31:46.271Z,12.70
2018-07-23T20:36:51.428Z,13.10
2018-07-23T20:41:55.088Z,14.30
2018-07-23T20:46:58.560Z,13.40
2018-07-23T20:52:02.827Z,13.27
2018-07-23T20:57:06.599Z,13.83
2018-07-23T21:02:10.147Z,13.43
2018-07-23T21:07:14.558Z,14.20
2018-07-23T21:12:18.924Z,12.87
2018-07-23T21:17:22.587Z,13.90
2018-07-23T21:22:26.503Z,12.87
2018-07-23T21:27:30.128Z,13.73
2018-07-23T21:32:33.761Z,14.10
2018-07-23T21:37:38.561Z,13.50
2018-07-23T21:42:42.231Z,15.47
2018-07-23T21:47:45.855Z,13.83
2018-07-23T21:52:49.473Z,14.80
2018-07-23T21:57:53.278Z,15.97
2018-07-23T22:02:56.897Z,15.33
2018-07-23T22:08:00.470Z,14.23
2018-07-23T22:13:04.135Z,15.00
2018-07-23T22:18:07.651Z,15.57
2018-07-23T22:23:11.194Z,15.23
2018-07-23T22:28:14.811Z,14.83
2018-07-23T22:33:18.349Z,16.80
2018-07-23T22:38:22.159Z,16.30
2018-07-23T22:43:26.022Z,14.90
2018-07-23T22:48:29.567Z,15.30
2018-07-23T22:53:33.138Z,16.83
2018-07-23T22:58:36.742Z,18.00
2018-07-23T23:03:40.291Z,15.23
2018-07-23T23:08:43.853Z,17.40
2018-07-23T23:13:48.177Z,17.10
2018-07-23T23:18:51.730Z,17.20
2018-07-23T23:23:55.322Z,17.77
2018-07-23T23:28:58.869Z,17.40
2018-07-23T23:34:02.471Z,16.23
2018-07-23T23:39:09.121Z,17.63
2018-07-23T23:44:12.696Z,18.43
2018-07-23T23:49:16.275Z,18.10
2018-07-23T23:54:19.907Z,19.33
2018-07-23T23:59:23.444Z,19.00
